createdAt,value
2019-03-23T00:00:07.877Z,9.62
2019-03-23T00:01:07.941Z,9.54
2019-03-23T00:02:08.001Z,9.54
2019-03-23T00:03:08.069Z,9.54
2019-03-23T00:04:08.133Z,9.59
2019-03-23T00:05:08.190Z,9.54
2019-03-23T00:06:08.295Z,9.54
2019-03-23T00:07:08.327Z,9.55
2019-03-23T00:08:08.381Z,9.55
2019-03-23T00:09:08.445Z,9.55
2019-03-23T00:10:08.500Z,9.56
2019-03-23T00:11:08.619Z,9.55
2019-03-23T00:12:08.621Z,9.55
2019-03-23T00:13:08.693Z,9.61
2019-03-23T00:14:08.761Z,9.58
2019-03-23T00:15:08.809Z,9.56
2019-03-23T00:16:08.878Z,9.56
2019-03-23T00:17:08.938Z,9.55
2019-03-23T00:18:09.006Z,9.51
2019-03-23T00:19:09.065Z,9.50
2019-03-23T00:20:09.127Z,9.54
2019-03-23T00:21:09.186Z,9.48
2019-03-23T00:22:09.266Z,9.44
2019-03-23T00:23:09.330Z,9.51
2019-03-23T00:24:09.374Z,9.36
2019-03-23T00:25:09.434Z,9.39
2019-03-23T00:26:09.498Z,9.37
2019-03-23T00:27:45.418Z,9.39
2019-03-23T00:28:09.626Z,9.40
2019-03-23T00:29:09.696Z,9.37
2019-03-23T00:30:09.752Z,9.29
2019-03-23T00:31:09.815Z,9.31
2019-03-23T00:32:09.873Z,9.32
2019-03-23T00:33:09.946Z,9.37
2019-03-23T00:34:10.008Z,9.28
2019-03-23T00:35:10.065Z,9.32
2019-03-23T00:36:10.124Z,9.28
2019-03-23T00:37:10.188Z,9.28
2019-03-23T00:38:10.249Z,9.25
2019-03-23T00:39:10.413Z,9.28
2019-03-23T00:40:10.374Z,9.16
2019-03-23T00:41:10.434Z,9.10
2019-03-23T00:42:10.498Z,9.11
2019-03-23T00:43:10.564Z,9.14
2019-03-23T00:44:10.630Z,9.10
2019-03-23T00:45:10.694Z,9.03
2019-03-23T00:46:10.749Z,9.02
2019-03-23T00:47:10.810Z,8.89
2019-03-23T00:48:10.873Z,8.92
2019-03-23T00:49:10.942Z,8.97
2019-03-23T00:50:10.997Z,8.92
2019-03-23T00:51:11.058Z,8.82
2019-03-23T00:52:11.122Z,8.74
2019-03-23T00:53:11.183Z,8.85
2019-03-23T00:54:11.270Z,8.79
2019-03-23T00:55:11.302Z,8.82
2019-03-23T00:56:11.370Z,8.73
2019-03-23T00:57:11.429Z,8.76
2019-03-23T00:58:11.494Z,8.69
2019-03-23T00:59:11.562Z,8.63
2019-03-23T01:00:11.622Z,8.69
2019-03-23T01:01:11.679Z,8.66
2019-03-23T01:02:11.742Z,8.63
2019-03-23T01:03:11.802Z,8.63
2019-03-23T01:04:11.871Z,8.61
2019-03-23T01:05:11.934Z,8.58
2019-03-23T01:06:12.017Z,8.58
2019-03-23T01:07:12.046Z,8.58
2019-03-23T01:08:12.119Z,8.53
2019-03-23T01:09:12.283Z,8.56
2019-03-23T01:10:12.234Z,8.49
2019-03-23T01:11:12.299Z,8.52
2019-03-23T01:12:12.358Z,8.53
2019-03-23T01:13:12.422Z,8.48
2019-03-23T01:14:12.490Z,8.51
2019-03-23T01:15:12.561Z,8.45
2019-03-23T01:16:12.614Z,8.49
2019-03-23T01:17:12.672Z,8.45
2019-03-23T01:18:12.733Z,8.44
2019-03-23T01:19:12.802Z,8.41
2019-03-23T01:20:12.863Z,8.38
2019-03-23T01:21:12.915Z,8.41
2019-03-23T01:22:12.976Z,8.45
2019-03-23T01:23:13.039Z,8.36
2019-03-23T01:24:13.128Z,8.38
2019-03-23T01:25:13.166Z,8.42
2019-03-23T01:26:13.318Z,8.34
2019-03-23T01:27:13.291Z,8.44
2019-03-23T01:28:13.352Z,8.38
2019-03-23T01:29:13.417Z,8.42
2019-03-23T01:30:13.488Z,8.44
2019-03-23T01:31:13.533Z,8.48
2019-03-23T01:32:13.595Z,8.45
2019-03-23T01:33:13.661Z,8.46
2019-03-23T01:34:13.721Z,8.52
2019-03-23T01:35:13.791Z,8.51
2019-03-23T01:36:13.845Z,8.51
2019-03-23T01:37:13.902Z,8.56
2019-03-23T01:38:13.961Z,8.61
2019-03-23T01:39:14.033Z,8.69
2019-03-23T01:40:14.098Z,8.88
2019-03-23T01:41:14.150Z,8.95
2019-03-23T01:42:14.211Z,9.10
2019-03-23T01:43:14.274Z,9.25
2019-03-23T01:44:14.350Z,9.18
2019-03-23T01:45:14.407Z,9.22
2019-03-23T01:46:14.458Z,9.32
2019-03-23T01:47:14.518Z,9.37
2019-03-23T01:48:14.584Z,9.43
2019-03-23T01:49:14.653Z,9.51
2019-03-23T01:50:14.718Z,9.48
2019-03-23T01:51:14.772Z,9.47
2019-03-23T01:52:14.831Z,9.56
2019-03-23T01:53:14.890Z,9.55
2019-03-23T01:54:14.958Z,9.54
2019-03-23T01:55:15.020Z,9.55
2019-03-23T01:56:15.081Z,9.64
2019-03-23T01:57:15.134Z,9.56
2019-03-23T01:58:15.202Z,9.58
2019-03-23T01:59:15.273Z,9.55
2019-03-23T02:00:15.327Z,9.47
2019-03-23T02:01:15.384Z,9.58
2019-03-23T02:02:15.443Z,9.51
2019-03-23T02:03:15.508Z,9.59
2019-03-23T02:04:15.579Z,9.54
2019-03-23T02:05:15.639Z,9.51
2019-03-23T02:06:15.692Z,9.43
2019-03-23T02:07:15.753Z,9.44
2019-03-23T02:08:15.815Z,9.32
2019-03-23T02:09:15.891Z,9.37
2019-03-23T02:10:15.946Z,9.31
2019-03-23T02:11:16.003Z,9.21
2019-03-23T02:12:16.060Z,9.28
2019-03-23T02:13:16.126Z,9.23
2019-03-23T02:14:16.227Z,9.26
2019-03-23T02:15:16.244Z,9.08
2019-03-23T02:16:16.307Z,9.16
2019-03-23T02:17:16.367Z,9.08
2019-03-23T02:18:16.428Z,9.16
2019-03-23T02:19:16.498Z,9.08
2019-03-23T02:20:16.559Z,8.99
2019-03-23T02:21:16.615Z,9.00
2019-03-23T02:22:16.675Z,8.91
2019-03-23T02:23:16.735Z,8.94
2019-03-23T02:24:16.804Z,8.94
2019-03-23T02:25:16.867Z,8.92
2019-03-23T02:26:16.921Z,8.82
2019-03-23T02:27:16.984Z,8.87
2019-03-23T02:28:17.044Z,8.85
2019-03-23T02:29:17.192Z,8.82
2019-03-23T02:30:17.170Z,8.79
2019-03-23T02:31:17.230Z,8.78
2019-03-23T02:32:17.297Z,8.70
2019-03-23T02:33:17.354Z,8.69
2019-03-23T02:34:17.421Z,8.70
2019-03-23T02:35:17.481Z,8.64
2019-03-23T02:36:17.537Z,8.64
2019-03-23T02:37:27.206Z,8.63
2019-03-23T02:38:17.670Z,8.63
2019-03-23T02:39:17.728Z,8.55
2019-03-23T02:40:17.790Z,8.44
2019-03-23T02:41:17.845Z,8.38
2019-03-23T02:42:17.905Z,8.34
2019-03-23T02:43:17.968Z,8.24
2019-03-23T02:44:18.034Z,8.18
2019-03-23T02:45:18.101Z,8.16
2019-03-23T02:46:18.149Z,8.15
2019-03-23T02:47:18.215Z,7.98
2019-03-23T02:48:18.274Z,7.98
2019-03-23T02:49:18.342Z,7.94
2019-03-23T02:50:18.401Z,7.98
2019-03-23T02:51:18.462Z,7.82
2019-03-23T02:52:18.518Z,7.83
2019-03-23T02:53:18.581Z,7.88
2019-03-23T02:54:18.667Z,7.82
2019-03-23T02:55:18.713Z,7.85
2019-03-23T02:56:18.790Z,7.80
2019-03-23T02:57:18.829Z,7.80
2019-03-23T02:58:18.887Z,7.82
2019-03-23T02:59:18.961Z,7.85
2019-03-23T03:00:19.018Z,7.88
2019-03-23T03:01:19.074Z,7.87
2019-03-23T03:02:19.143Z,7.97
2019-03-23T03:03:19.192Z,7.98
2019-03-23T03:04:19.267Z,7.95
2019-03-23T03:05:19.393Z,7.95
2019-03-23T03:06:19.375Z,7.97
2019-03-23T03:07:19.434Z,7.97
2019-03-23T03:08:19.509Z,7.95
2019-03-23T03:09:19.568Z,7.97
2019-03-23T03:10:19.632Z,7.94
2019-03-23T03:11:19.684Z,8.00
2019-03-23T03:12:19.738Z,7.95
2019-03-23T03:13:19.815Z,8.03
2019-03-23T03:14:19.871Z,8.01
2019-03-23T03:15:19.934Z,8.03
2019-03-23T03:16:19.992Z,8.05
2019-03-23T03:17:20.047Z,8.03
2019-03-23T03:18:20.107Z,7.98
2019-03-23T03:19:20.327Z,8.00
2019-03-23T03:20:20.235Z,7.97
2019-03-23T03:21:20.292Z,8.00
2019-03-23T03:22:20.351Z,7.95
2019-03-23T03:23:20.415Z,8.00
2019-03-23T03:24:20.488Z,8.00
2019-03-23T03:25:20.543Z,7.98
2019-03-23T03:26:20.603Z,7.95
2019-03-23T03:27:20.659Z,8.00
2019-03-23T03:28:20.737Z,7.97
2019-03-23T03:29:20.792Z,7.94
2019-03-23T03:30:20.860Z,7.98
2019-03-23T03:31:20.904Z,7.94
2019-03-23T03:32:20.965Z,7.94
2019-03-23T03:33:21.028Z,7.88
2019-03-23T03:34:21.132Z,7.83
2019-03-23T03:35:21.149Z,7.83
2019-03-23T03:36:21.208Z,7.87
2019-03-23T03:37:21.272Z,7.85
2019-03-23T03:38:21.334Z,7.88
2019-03-23T03:39:21.407Z,7.97
2019-03-23T03:40:21.473Z,7.98
2019-03-23T03:41:21.516Z,7.93
2019-03-23T03:42:21.582Z,7.93
2019-03-23T03:43:21.637Z,7.97
2019-03-23T03:44:21.706Z,7.97
2019-03-23T03:45:21.768Z,7.97
2019-03-23T03:46:21.821Z,7.97
2019-03-23T03:47:21.889Z,7.97
2019-03-23T03:48:21.955Z,8.05
2019-03-23T03:49:22.013Z,8.03
2019-03-23T03:50:22.075Z,8.01
2019-03-23T03:51:22.156Z,8.06
2019-03-23T03:52:22.190Z,7.93
2019-03-23T03:53:22.252Z,8.06
2019-03-23T03:54:22.492Z,7.98
2019-03-23T03:55:22.373Z,8.03
2019-03-23T03:56:22.434Z,8.06
2019-03-23T03:57:22.497Z,8.03
2019-03-23T03:58:22.560Z,8.10
2019-03-23T03:59:22.628Z,8.00
2019-03-23T04:00:22.685Z,8.13
2019-03-23T04:01:22.741Z,8.06
2019-03-23T04:02:22.799Z,8.18
2019-03-23T04:03:22.861Z,8.15
2019-03-23T04:04:22.929Z,8.09
2019-03-23T04:05:22.994Z,8.10
2019-03-23T04:06:23.046Z,8.18
2019-03-23T04:07:23.106Z,8.16
2019-03-23T04:08:23.169Z,8.08
2019-03-23T04:09:23.257Z,8.03
2019-03-23T04:10:23.289Z,7.98
2019-03-23T04:11:23.355Z,8.08
2019-03-23T04:12:23.413Z,8.08
2019-03-23T04:13:23.478Z,8.01
2019-03-23T04:14:23.557Z,8.01
2019-03-23T04:15:23.606Z,8.12
2019-03-23T04:16:23.658Z,8.05
2019-03-23T04:17:23.723Z,8.03
2019-03-23T04:18:23.783Z,8.05
2019-03-23T04:19:23.853Z,8.05
2019-03-23T04:20:23.917Z,8.08
2019-03-23T04:21:23.970Z,8.05
2019-03-23T04:22:24.050Z,8.15
2019-03-23T04:23:24.097Z,8.08
2019-03-23T04:24:24.244Z,8.15
2019-03-23T04:25:24.215Z,8.15
2019-03-23T04:26:24.273Z,8.06
2019-03-23T04:27:24.335Z,8.16
2019-03-23T04:28:24.397Z,8.13
2019-03-23T04:29:24.463Z,8.13
2019-03-23T04:30:24.527Z,8.09
2019-03-23T04:31:24.584Z,8.18
2019-03-23T04:32:24.638Z,8.16
2019-03-23T04:33:24.702Z,8.16
2019-03-23T04:34:24.771Z,8.13
2019-03-23T04:35:24.830Z,8.16
2019-03-23T04:36:24.891Z,8.12
2019-03-23T04:37:24.947Z,8.13
2019-03-23T04:38:25.007Z,8.16
2019-03-23T04:39:25.159Z,8.13
2019-03-23T04:40:25.132Z,8.30
2019-03-23T04:41:25.198Z,8.13
2019-03-23T04:42:25.255Z,8.26
2019-03-23T04:43:25.315Z,8.15
2019-03-23T04:44:25.386Z,8.15
2019-03-23T04:45:25.454Z,8.18
2019-03-23T04:46:25.499Z,8.13
2019-03-23T04:47:25.559Z,8.13
2019-03-23T04:48:25.624Z,8.13
2019-03-23T04:49:25.692Z,8.18
2019-03-23T04:50:25.756Z,8.28
2019-03-23T04:51:25.811Z,8.16
2019-03-23T04:52:25.868Z,8.18
2019-03-23T04:53:25.931Z,8.23
2019-03-23T04:54:26.003Z,8.27
2019-03-23T04:55:26.062Z,8.19
2019-03-23T04:56:26.112Z,8.26
2019-03-23T04:57:26.175Z,8.23
2019-03-23T04:58:26.236Z,8.20
2019-03-23T04:59:26.300Z,8.23
2019-03-23T05:00:26.535Z,8.23
2019-03-23T05:01:26.419Z,8.27
2019-03-23T05:02:26.481Z,8.23
2019-03-23T05:03:26.544Z,8.26
2019-03-23T05:04:26.608Z,8.23
2019-03-23T05:05:26.672Z,8.31
2019-03-23T05:06:26.739Z,8.31
2019-03-23T05:07:26.788Z,8.31
2019-03-23T05:08:33.321Z,8.30
2019-03-23T05:09:26.912Z,8.37
2019-03-23T05:10:26.980Z,8.36
2019-03-23T05:11:27.040Z,8.37
2019-03-23T05:12:27.096Z,8.44
2019-03-23T05:13:27.164Z,8.37
2019-03-23T05:14:27.216Z,8.36
2019-03-23T05:15:27.528Z,8.42
2019-03-23T05:16:27.340Z,8.41
2019-03-23T05:17:27.404Z,8.44
2019-03-23T05:18:27.465Z,8.45
2019-03-23T05:19:27.527Z,8.52
2019-03-23T05:20:27.592Z,8.48
2019-03-23T05:21:27.657Z,8.46
2019-03-23T05:22:27.712Z,8.42
2019-03-23T05:23:27.772Z,8.49
2019-03-23T05:24:27.832Z,8.42
2019-03-23T05:25:27.900Z,8.52
2019-03-23T05:26:27.966Z,8.44
2019-03-23T05:27:28.019Z,8.52
2019-03-23T05:28:28.082Z,8.44
2019-03-23T05:29:28.140Z,8.44
2019-03-23T05:30:28.295Z,8.44
2019-03-23T05:31:28.265Z,8.48
2019-03-23T05:32:28.326Z,8.52
2019-03-23T05:33:28.389Z,8.49
2019-03-23T05:34:28.449Z,8.46
2019-03-23T05:35:28.518Z,8.46
2019-03-23T05:36:28.582Z,8.45
2019-03-23T05:37:28.644Z,8.48
2019-03-23T05:38:28.697Z,8.51
2019-03-23T05:39:28.760Z,8.52
2019-03-23T05:40:28.828Z,8.49
2019-03-23T05:41:30.878Z,8.56
2019-03-23T05:42:28.942Z,8.55
2019-03-23T05:43:29.006Z,8.55
2019-03-23T05:44:29.066Z,8.58
2019-03-23T05:45:29.126Z,8.58
2019-03-23T05:46:29.210Z,8.67
2019-03-23T05:47:29.250Z,8.64
2019-03-23T05:48:29.320Z,8.69
2019-03-23T05:49:29.374Z,8.63
2019-03-23T05:50:29.433Z,8.60
2019-03-23T05:51:29.502Z,8.66
2019-03-23T05:52:29.567Z,8.66
2019-03-23T05:53:29.622Z,8.74
2019-03-23T05:54:29.683Z,8.73
2019-03-23T05:55:29.744Z,8.66
2019-03-23T05:56:29.815Z,8.67
2019-03-23T05:57:29.880Z,8.67
2019-03-23T05:58:29.929Z,8.67
2019-03-23T05:59:29.991Z,8.70
2019-03-23T06:00:30.052Z,8.76
2019-03-23T06:01:30.142Z,8.69
2019-03-23T06:02:30.179Z,8.69
2019-03-23T06:03:30.238Z,8.69
2019-03-23T06:04:30.298Z,8.69
2019-03-23T06:05:30.359Z,8.70
2019-03-23T06:06:30.428Z,8.71
2019-03-23T06:07:30.490Z,8.73
2019-03-23T06:08:30.547Z,8.73
2019-03-23T06:09:30.612Z,8.76
2019-03-23T06:10:30.667Z,8.66
2019-03-23T06:11:30.748Z,8.74
2019-03-23T06:12:30.800Z,8.74
2019-03-23T06:13:30.855Z,8.84
2019-03-23T06:14:30.917Z,8.78
2019-03-23T06:15:30.982Z,8.78
2019-03-23T06:16:31.054Z,8.76
2019-03-23T06:17:31.111Z,8.79
2019-03-23T06:18:31.163Z,8.88
2019-03-23T06:19:31.223Z,8.82
2019-03-23T06:20:31.291Z,8.82
2019-03-23T06:21:31.363Z,8.85
2019-03-23T06:22:31.413Z,8.85
2019-03-23T06:23:31.473Z,8.85
2019-03-23T06:24:31.536Z,8.78
2019-03-23T06:25:31.676Z,8.87
2019-03-23T06:26:31.669Z,8.89
2019-03-23T06:27:31.728Z,8.89
2019-03-23T06:28:31.785Z,8.89
2019-03-23T06:29:31.844Z,8.89
2019-03-23T06:30:31.906Z,8.92
2019-03-23T06:31:31.976Z,8.91
2019-03-23T06:32:32.037Z,8.88
2019-03-23T06:33:32.096Z,8.94
2019-03-23T06:34:32.152Z,8.92
2019-03-23T06:35:32.216Z,8.97
2019-03-23T06:36:32.380Z,8.94
2019-03-23T06:37:32.345Z,8.87
2019-03-23T06:38:32.400Z,8.99
2019-03-23T06:39:32.464Z,9.00
2019-03-23T06:40:32.524Z,8.95
2019-03-23T06:41:32.592Z,8.97
2019-03-23T06:42:32.656Z,8.94
2019-03-23T06:43:32.708Z,8.95
2019-03-23T06:44:32.773Z,8.97
2019-03-23T06:45:32.836Z,9.04
2019-03-23T06:46:32.949Z,9.04
2019-03-23T06:47:32.965Z,9.04
2019-03-23T06:48:33.021Z,9.03
2019-03-23T06:49:33.081Z,9.02
2019-03-23T06:50:33.141Z,9.08
2019-03-23T06:51:33.225Z,9.10
2019-03-23T06:52:33.270Z,9.02
2019-03-23T06:53:33.329Z,9.08
2019-03-23T06:54:33.389Z,9.10
2019-03-23T06:55:33.454Z,9.10
2019-03-23T06:56:33.521Z,9.04
2019-03-23T06:57:33.590Z,9.06
2019-03-23T06:58:33.637Z,9.02
2019-03-23T06:59:33.705Z,9.13
2019-03-23T07:00:33.765Z,9.06
2019-03-23T07:01:33.833Z,9.06
2019-03-23T07:02:33.894Z,9.04
2019-03-23T07:03:33.945Z,9.11
2019-03-23T07:04:34.010Z,9.08
2019-03-23T07:05:34.070Z,9.10
2019-03-23T07:06:34.241Z,9.11
2019-03-23T07:07:34.193Z,9.18
2019-03-23T07:08:34.258Z,9.08
2019-03-23T07:09:34.322Z,9.11
2019-03-23T07:10:34.379Z,9.16
2019-03-23T07:11:34.454Z,9.11
2019-03-23T07:12:34.511Z,9.19
2019-03-23T07:13:34.566Z,9.16
2019-03-23T07:14:34.642Z,9.11
2019-03-23T07:15:34.690Z,9.13
2019-03-23T07:16:34.758Z,9.11
2019-03-23T07:17:34.822Z,9.16
2019-03-23T07:18:34.874Z,9.13
2019-03-23T07:19:34.940Z,9.16
2019-03-23T07:20:35.002Z,9.13
2019-03-23T07:21:35.070Z,9.14
2019-03-23T07:22:35.130Z,9.13
2019-03-23T07:23:35.182Z,9.14
2019-03-23T07:24:35.248Z,9.18
2019-03-23T07:25:35.310Z,9.25
2019-03-23T07:26:35.374Z,9.28
2019-03-23T07:27:35.455Z,9.23
2019-03-23T07:28:35.499Z,9.21
2019-03-23T07:29:35.555Z,9.37
2019-03-23T07:30:35.616Z,9.31
2019-03-23T07:31:35.691Z,9.34
2019-03-23T07:32:35.772Z,9.39
2019-03-23T07:33:35.805Z,9.36
2019-03-23T07:34:35.924Z,9.41
2019-03-23T07:35:35.927Z,9.41
2019-03-23T07:36:35.995Z,9.43
2019-03-23T07:37:36.060Z,9.41
2019-03-23T07:38:36.113Z,9.41
2019-03-23T07:39:36.179Z,9.39
2019-03-23T07:40:36.239Z,9.39
2019-03-23T07:41:36.300Z,9.47
2019-03-23T07:42:36.395Z,9.46
2019-03-23T07:43:36.424Z,9.51
2019-03-23T07:44:36.484Z,9.58
2019-03-23T07:45:36.548Z,9.59
2019-03-23T07:46:36.607Z,9.56
2019-03-23T07:47:36.676Z,9.51
2019-03-23T07:48:36.743Z,9.51
2019-03-23T07:49:36.798Z,9.54
2019-03-23T07:50:36.856Z,9.48
2019-03-23T07:51:36.921Z,9.55
2019-03-23T07:52:36.989Z,9.58
2019-03-23T07:53:37.076Z,9.62
2019-03-23T07:54:37.104Z,9.56
2019-03-23T07:55:37.168Z,9.61
2019-03-23T07:56:37.233Z,9.64
2019-03-23T07:57:37.644Z,9.68
2019-03-23T07:58:37.356Z,9.65
2019-03-23T07:59:37.414Z,9.73
2019-03-23T08:00:37.480Z,9.84
2019-03-23T08:01:37.540Z,9.74
2019-03-23T08:02:37.600Z,9.80
2019-03-23T08:03:37.748Z,9.84
2019-03-23T08:04:37.728Z,9.86
2019-03-23T08:05:37.793Z,9.84
2019-03-23T08:06:37.849Z,9.84
2019-03-23T08:07:37.909Z,9.82
2019-03-23T08:08:37.985Z,9.82
2019-03-23T08:09:38.150Z,9.82
2019-03-23T08:10:38.098Z,9.83
2019-03-23T08:11:38.161Z,9.83
2019-03-23T08:12:38.221Z,9.86
2019-03-23T08:13:38.325Z,9.82
2019-03-23T08:14:38.347Z,9.86
2019-03-23T08:15:38.409Z,9.94
2019-03-23T08:16:38.473Z,9.97
2019-03-23T08:17:38.533Z,10.01
2019-03-23T08:18:38.603Z,10.04
2019-03-23T08:19:38.665Z,10.13
2019-03-23T08:20:38.720Z,10.13
2019-03-23T08:21:38.781Z,10.19
2019-03-23T08:22:38.846Z,10.20
2019-03-23T08:23:38.935Z,10.23
2019-03-23T08:24:38.977Z,10.35
2019-03-23T08:25:39.029Z,10.34
2019-03-23T08:26:39.094Z,10.35
2019-03-23T08:27:41.540Z,10.44
2019-03-23T08:28:39.245Z,10.53
2019-03-23T08:29:39.285Z,10.59
2019-03-23T08:30:39.342Z,10.63
2019-03-23T08:31:39.406Z,10.76
2019-03-23T08:32:39.473Z,10.82
2019-03-23T08:33:39.539Z,10.86
2019-03-23T08:34:39.602Z,10.93
2019-03-23T08:35:39.654Z,10.89
2019-03-23T08:36:39.718Z,10.92
2019-03-23T08:37:39.783Z,10.89
2019-03-23T08:38:39.851Z,10.96
2019-03-23T08:39:48.161Z,11.04
2019-03-23T08:40:40.019Z,11.02
2019-03-23T08:41:40.031Z,11.00
2019-03-23T08:42:40.255Z,11.02
2019-03-23T08:43:40.255Z,11.11
2019-03-23T08:44:40.224Z,11.17
2019-03-23T08:45:40.283Z,11.17
2019-03-23T08:46:40.346Z,11.15
2019-03-23T08:47:41.056Z,11.18
2019-03-23T08:48:40.535Z,11.22
2019-03-23T08:49:40.546Z,11.17
2019-03-23T08:50:40.599Z,11.14
2019-03-23T08:51:40.661Z,11.15
2019-03-23T08:52:40.723Z,11.27
2019-03-23T08:53:40.851Z,11.29
2019-03-23T08:54:41.263Z,11.27
2019-03-23T08:55:41.003Z,11.27
2019-03-23T08:56:41.007Z,11.43
2019-03-23T08:57:41.509Z,11.43
2019-03-23T08:58:41.359Z,11.40
2019-03-23T08:59:41.269Z,11.40
2019-03-23T09:00:41.285Z,11.37
2019-03-23T09:01:41.291Z,11.45
2019-03-23T09:02:41.351Z,11.41
2019-03-23T09:03:51.817Z,11.32
2019-03-23T09:04:41.589Z,11.50
2019-03-23T09:05:41.552Z,11.48
2019-03-23T09:06:41.749Z,11.54
2019-03-23T09:07:41.672Z,11.63
2019-03-23T09:08:41.740Z,11.48
2019-03-23T09:09:41.804Z,11.59
2019-03-23T09:10:41.860Z,11.45
2019-03-23T09:11:41.927Z,11.48
2019-03-23T09:12:41.989Z,11.37
2019-03-23T09:13:42.064Z,11.27
2019-03-23T09:14:42.121Z,11.25
2019-03-23T09:15:42.180Z,11.29
2019-03-23T09:16:42.244Z,11.26
2019-03-23T09:17:42.304Z,11.29
2019-03-23T09:18:42.397Z,11.41
2019-03-23T09:19:42.434Z,11.44
2019-03-23T09:20:42.492Z,11.45
2019-03-23T09:21:42.553Z,11.47
2019-03-23T09:22:42.617Z,11.62
2019-03-23T09:23:42.688Z,11.54
2019-03-23T09:24:42.753Z,11.57
2019-03-23T09:25:42.810Z,11.66
2019-03-23T09:26:42.866Z,11.72
2019-03-23T09:27:42.932Z,11.68
2019-03-23T09:28:43.005Z,11.72
2019-03-23T09:29:43.069Z,11.68
2019-03-23T09:30:43.129Z,11.63
2019-03-23T09:31:43.189Z,11.84
2019-03-23T09:32:43.249Z,11.75
2019-03-23T09:33:43.313Z,11.75
2019-03-23T09:34:43.721Z,11.68
2019-03-23T09:35:43.442Z,11.77
2019-03-23T09:36:43.505Z,11.83
2019-03-23T09:37:43.602Z,11.87
2019-03-23T09:38:43.629Z,11.88
2019-03-23T09:39:43.697Z,11.95
2019-03-23T09:40:43.814Z,11.88
2019-03-23T09:41:43.829Z,11.84
2019-03-23T09:42:43.887Z,11.83
2019-03-23T09:43:44.082Z,11.80
2019-03-23T09:44:44.010Z,11.69
2019-03-23T09:45:44.090Z,11.70
2019-03-23T09:46:44.135Z,11.77
2019-03-23T09:47:44.204Z,11.81
2019-03-23T09:48:44.266Z,11.78
2019-03-23T09:49:44.331Z,11.70
2019-03-23T09:50:44.409Z,11.68
2019-03-23T09:51:44.479Z,11.68
2019-03-23T09:52:44.518Z,11.60
2019-03-23T09:53:44.583Z,11.62
2019-03-23T09:54:44.646Z,11.63
2019-03-23T09:55:44.715Z,11.62
2019-03-23T09:56:44.822Z,11.63
2019-03-23T09:57:44.847Z,11.54
2019-03-23T09:58:44.930Z,11.60
2019-03-23T09:59:44.964Z,11.44
2019-03-23T10:00:45.034Z,11.47
2019-03-23T10:01:45.098Z,11.55
2019-03-23T10:02:45.155Z,11.60
2019-03-23T10:03:45.215Z,11.77
2019-03-23T10:04:45.281Z,11.66
2019-03-23T10:05:45.362Z,11.70
2019-03-23T10:06:45.409Z,11.70
2019-03-23T10:07:45.475Z,11.78
2019-03-23T10:08:46.500Z,11.80
2019-03-23T10:09:45.599Z,11.73
2019-03-23T10:10:45.672Z,11.81
2019-03-23T10:11:45.731Z,11.84
2019-03-23T10:12:45.801Z,11.88
2019-03-23T10:13:45.851Z,11.88
2019-03-23T10:14:45.913Z,11.97
2019-03-23T10:15:45.984Z,11.94
2019-03-23T10:16:46.059Z,12.02
2019-03-23T10:17:47.127Z,12.04
2019-03-23T10:18:46.172Z,12.02
2019-03-23T10:19:46.243Z,12.04
2019-03-23T10:20:46.412Z,12.03
2019-03-23T10:21:46.357Z,11.97
2019-03-23T10:22:46.420Z,12.00
2019-03-23T10:23:46.484Z,11.94
2019-03-23T10:24:46.553Z,11.94
2019-03-23T10:25:46.616Z,11.94
2019-03-23T10:26:46.684Z,11.97
2019-03-23T10:27:46.741Z,12.02
2019-03-23T10:28:46.826Z,12.03
2019-03-23T10:29:46.867Z,12.20
2019-03-23T10:30:46.936Z,12.25
2019-03-23T10:31:46.996Z,12.03
2019-03-23T10:32:47.063Z,12.18
2019-03-23T10:33:47.158Z,12.20
2019-03-23T10:34:47.185Z,12.25
2019-03-23T10:35:47.461Z,12.28
2019-03-23T10:36:47.309Z,12.32
2019-03-23T10:37:47.373Z,12.40
2019-03-23T10:38:47.432Z,12.39
2019-03-23T10:39:47.578Z,12.36
2019-03-23T10:40:47.569Z,12.25
2019-03-23T10:41:47.636Z,12.29
2019-03-23T10:42:47.686Z,12.17
2019-03-23T10:43:47.753Z,12.03
2019-03-23T10:44:47.817Z,12.06
2019-03-23T10:45:47.890Z,12.10
2019-03-23T10:46:47.949Z,12.03
2019-03-23T10:47:48.139Z,12.07
2019-03-23T10:48:48.069Z,12.18
2019-03-23T10:49:48.249Z,12.20
2019-03-23T10:50:48.209Z,12.27
2019-03-23T10:51:48.261Z,12.32
2019-03-23T10:52:48.329Z,12.25
2019-03-23T10:53:48.490Z,12.29
2019-03-23T10:54:48.451Z,12.35
2019-03-23T10:55:48.544Z,12.39
2019-03-23T10:56:48.682Z,12.39
2019-03-23T10:57:48.665Z,12.49
2019-03-23T10:58:48.706Z,12.45
2019-03-23T10:59:48.768Z,12.50
2019-03-23T11:00:48.881Z,12.53
2019-03-23T11:01:48.911Z,12.36
2019-03-23T11:02:48.956Z,12.35
2019-03-23T11:03:49.022Z,12.17
2019-03-23T11:04:49.085Z,12.17
2019-03-23T11:05:49.150Z,12.04
2019-03-23T11:06:49.226Z,12.06
2019-03-23T11:07:49.290Z,12.03
2019-03-23T11:08:49.338Z,12.03
2019-03-23T11:09:49.402Z,12.00
2019-03-23T11:10:49.470Z,12.00
2019-03-23T11:11:49.538Z,12.03
2019-03-23T11:12:49.609Z,11.97
2019-03-23T11:13:49.658Z,11.94
2019-03-23T11:14:49.718Z,11.99
2019-03-23T11:15:49.782Z,12.06
2019-03-23T11:16:49.856Z,11.99
2019-03-23T11:17:49.924Z,12.00
2019-03-23T11:18:49.974Z,12.04
2019-03-23T11:19:50.038Z,12.00
2019-03-23T11:20:50.103Z,12.03
2019-03-23T11:21:50.269Z,12.06
2019-03-23T11:22:50.226Z,12.09
2019-03-23T11:23:50.293Z,12.02
2019-03-23T11:24:50.357Z,12.07
2019-03-23T11:25:50.419Z,12.15
2019-03-23T11:26:50.498Z,12.36
2019-03-23T11:27:50.559Z,12.54
2019-03-23T11:28:50.608Z,12.45
2019-03-23T11:29:50.675Z,12.50
2019-03-23T11:30:50.735Z,12.61
2019-03-23T11:31:50.814Z,12.55
2019-03-23T11:32:50.883Z,12.80
2019-03-23T11:33:50.931Z,12.82
2019-03-23T11:34:50.987Z,13.04
2019-03-23T11:35:57.754Z,13.30
2019-03-23T11:36:51.208Z,13.46
2019-03-23T11:37:51.374Z,13.72
2019-03-23T11:38:51.247Z,13.90
2019-03-23T11:39:51.308Z,14.11
2019-03-23T11:40:54.035Z,14.15
2019-03-23T11:41:51.444Z,14.22
2019-03-23T11:42:51.509Z,14.00
2019-03-23T11:43:51.578Z,14.00
2019-03-23T11:44:51.668Z,14.00
2019-03-23T11:45:51.693Z,14.17
2019-03-23T11:46:51.764Z,14.23
2019-03-23T11:47:51.832Z,14.44
2019-03-23T11:48:51.884Z,14.73
2019-03-23T11:49:51.950Z,14.86
2019-03-23T11:50:52.012Z,15.04
2019-03-23T11:51:52.076Z,15.07
2019-03-23T11:52:52.189Z,15.27
2019-03-23T11:53:52.204Z,15.42
2019-03-23T11:54:52.269Z,15.37
2019-03-23T11:55:52.337Z,15.37
2019-03-23T11:56:52.402Z,15.51
2019-03-23T11:57:52.472Z,15.61
2019-03-23T11:58:54.011Z,15.72
2019-03-23T11:59:52.593Z,15.59
2019-03-23T12:00:52.665Z,15.59
2019-03-23T12:01:52.726Z,15.52
2019-03-23T12:02:52.803Z,15.57
2019-03-23T12:03:52.861Z,15.49
2019-03-23T12:04:52.926Z,15.40
2019-03-23T12:05:52.985Z,15.33
2019-03-23T12:06:53.051Z,15.27
2019-03-23T12:07:53.138Z,15.39
2019-03-23T12:08:53.189Z,15.42
2019-03-23T12:09:53.249Z,15.61
2019-03-23T12:11:02.501Z,15.44
2019-03-23T12:11:53.374Z,15.44
2019-03-23T12:12:53.455Z,15.42
2019-03-23T12:13:53.517Z,15.18
2019-03-23T12:14:53.570Z,14.77
2019-03-23T12:15:53.638Z,14.63
2019-03-23T12:16:53.702Z,14.73
2019-03-23T12:17:53.774Z,14.85
2019-03-23T12:18:53.838Z,14.86
2019-03-23T12:19:53.902Z,15.02
2019-03-23T12:20:53.962Z,14.73
2019-03-23T12:21:54.030Z,14.68
2019-03-23T12:22:54.186Z,14.92
2019-03-23T12:23:54.158Z,15.03
2019-03-23T12:24:54.222Z,15.19
2019-03-23T12:25:54.290Z,15.19
2019-03-23T12:26:54.354Z,15.14
2019-03-23T12:27:54.426Z,15.17
2019-03-23T12:28:54.494Z,15.27
2019-03-23T12:29:54.551Z,15.29
2019-03-23T12:30:54.614Z,15.43
2019-03-23T12:31:54.691Z,15.47
2019-03-23T12:32:54.754Z,15.39
2019-03-23T12:33:54.820Z,15.24
2019-03-23T12:34:54.875Z,14.88
2019-03-23T12:35:54.943Z,14.96
2019-03-23T12:36:55.010Z,14.97
2019-03-23T12:37:55.075Z,15.02
2019-03-23T12:38:55.157Z,15.21
2019-03-23T12:39:55.202Z,15.06
2019-03-23T12:40:55.271Z,14.99
2019-03-23T12:41:55.335Z,14.97
2019-03-23T12:42:55.403Z,15.06
2019-03-23T12:43:55.470Z,15.06
2019-03-23T12:44:55.535Z,15.14
2019-03-23T12:45:55.595Z,15.21
2019-03-23T12:46:55.659Z,15.31
2019-03-23T12:47:55.730Z,15.55
2019-03-23T12:48:55.795Z,15.40
2019-03-23T12:49:55.863Z,15.39
2019-03-23T12:50:55.919Z,15.04
2019-03-23T12:51:55.984Z,14.96
2019-03-23T12:52:57.463Z,15.03
2019-03-23T12:53:56.140Z,15.11
2019-03-23T12:54:56.186Z,15.17
2019-03-23T12:55:56.243Z,15.35
2019-03-23T12:56:56.316Z,15.36
2019-03-23T12:57:56.376Z,15.21
2019-03-23T12:58:56.447Z,15.00
2019-03-23T12:59:56.515Z,15.00
2019-03-23T13:00:56.572Z,14.94
2019-03-23T13:01:56.635Z,14.88
2019-03-23T13:02:56.707Z,14.88
2019-03-23T13:03:56.776Z,14.96
2019-03-23T13:04:56.840Z,15.04
2019-03-23T13:05:56.896Z,14.99
2019-03-23T13:06:56.964Z,15.00
2019-03-23T13:07:57.028Z,14.97
2019-03-23T13:08:57.124Z,14.88